Time;durP1;ratioP1;P1;durP2;ratioP2;P2;SDS_P1;SDS_P2;PMS_P1;PMS_P2;Temp;Humidity;BMP_temperature;BMP_pressure;BME280_temperature;BME280_humidity;BME280_pressure;Samples;Min_cycle;Max_cycle;Signal;HPM_P1;HPM_P2
2021/08/30 00:01:28;;;;;;;17.90;17.03;;;15.50;94.90;;;;;;5001154;28;20524;-73
2021/08/30 00:03:56;;;;;;;17.60;16.70;;;15.50;94.90;;;;;;5002279;28;20457;-73
2021/08/30 00:06:23;;;;;;;19.10;18.10;;;15.50;95.10;;;;;;5008205;28;20994;-73
2021/08/30 00:08:50;;;;;;;18.83;17.67;;;15.50;95.20;;;;;;4996485;28;20495;-72
2021/08/30 00:11:17;;;;;;;19.07;17.97;;;15.50;95.70;;;;;;5007622;28;20819;-72
2021/08/30 00:13:44;;;;;;;19.30;18.30;;;15.60;95.30;;;;;;5002280;28;20461;-72
2021/08/30 00:16:11;;;;;;;19.97;18.87;;;15.60;95.20;;;;;;5005217;28;20463;-73
2021/08/30 00:18:38;;;;;;;19.97;18.90;;;15.60;94.90;;;;;;5001258;28;20469;-72
2021/08/30 00:21:06;;;;;;;20.00;18.90;;;15.60;94.90;;;;;;5000955;28;20459;-75
2021/08/30 00:23:33;;;;;;;21.23;19.93;;;15.50;95.20;;;;;;5004599;28;20990;-73
2021/08/30 00:26:04;;;;;;;19.93;18.83;;;15.60;95.20;;;;;;5002647;28;20994;-73
2021/08/30 00:28:31;;;;;;;20.70;19.60;;;15.60;95.10;;;;;;4995224;28;20662;-72
2021/08/30 00:30:58;;;;;;;21.27;20.07;;;15.60;95.10;;;;;;4993044;28;20472;-73
2021/08/30 00:33:25;;;;;;;20.37;19.20;;;15.60;94.90;;;;;;4997952;28;20469;-72
2021/08/30 00:35:52;;;;;;;19.70;18.60;;;15.70;94.50;;;;;;4995741;28;20458;-73
2021/08/30 00:38:20;;;;;;;20.37;19.20;;;15.60;94.90;;;;;;4999832;28;20577;-72
2021/08/30 00:40:47;;;;;;;22.07;20.60;;;15.70;94.90;;;;;;4993711;28;20660;-72
2021/08/30 00:43:14;;;;;;;20.47;19.27;;;15.60;94.90;;;;;;4997539;28;20465;-72
2021/08/30 00:45:41;;;;;;;20.43;19.33;;;15.60;94.90;;;;;;5009087;28;20556;-73
2021/08/30 00:48:08;;;;;;;20.43;19.23;;;15.60;94.90;;;;;;4992696;28;20852;-73
2021/08/30 00:50:35;;;;;;;20.37;19.20;;;15.70;94.90;;;;;;5001324;28;20453;-73
2021/08/30 00:53:02;;;;;;;20.33;19.13;;;15.70;94.60;;;;;;5006933;28;20465;-73
2021/08/30 00:55:31;;;;;;;20.93;19.63;;;15.80;94.30;;;;;;4995301;28;20456;-73
2021/08/30 00:57:58;;;;;;;21.90;20.60;;;15.70;94.70;;;;;;4993350;28;20477;-73
2021/08/30 01:00:25;;;;;;;20.80;19.70;;;15.70;94.70;;;;;;4994116;28;20462;-73
2021/08/30 01:02:52;;;;;;;21.30;20.10;;;15.70;94.60;;;;;;4996265;28;20462;-73
2021/08/30 01:05:20;;;;;;;21.63;20.40;;;15.70;94.90;;;;;;4993796;28;20560;-73
2021/08/30 01:08:00;;;;;;;21.03;19.70;;;15.60;94.70;;;;;;4993962;28;20477;-73
2021/08/30 01:10:34;;;;;;;21.47;20.20;;;15.70;94.90;;;;;;4998307;28;20463;-73
2021/08/30 01:13:05;;;;;;;21.67;20.47;;;15.70;94.40;;;;;;4993628;28;22762;-73
2021/08/30 01:15:39;;;;;;;21.93;20.57;;;15.70;94.40;;;;;;5001899;28;20970;-73
2021/08/30 01:18:09;;;;;;;21.53;20.23;;;15.80;94.40;;;;;;4990961;28;20827;-73
2021/08/30 01:20:54;;;;;;;21.70;20.40;;;15.70;94.30;;;;;;5005539;28;20457;-73
2021/08/30 01:23:23;;;;;;;22.03;20.67;;;15.60;94.20;;;;;;5026916;28;20461;-73
2021/08/30 01:25:53;;;;;;;21.37;20.10;;;15.60;94.40;;;;;;5000421;28;20901;-73
2021/08/30 01:28:22;;;;;;;22.03;20.73;;;15.60;94.70;;;;;;4993079;28;20566;-73
2021/08/30 01:30:51;;;;;;;21.90;20.60;;;15.60;94.70;;;;;;5003545;28;20493;-73
2021/08/30 01:33:22;;;;;;;22.70;21.40;;;15.70;94.70;;;;;;5005598;28;20524;-73
2021/08/30 01:35:50;;;;;;;22.37;20.97;;;15.70;94.50;;;;;;4998078;28;20468;-73
2021/08/30 01:38:17;;;;;;;22.70;21.30;;;15.80;94.40;;;;;;4998099;28;20502;-73
2021/08/30 01:40:44;;;;;;;21.73;20.33;;;15.80;94.30;;;;;;5000103;28;20978;-73
2021/08/30 01:43:12;;;;;;;22.40;21.10;;;15.80;94.30;;;;;;4989207;28;20574;-73
2021/08/30 01:45:40;;;;;;;22.37;21.00;;;15.80;94.30;;;;;;4993106;28;20685;-73
2021/08/30 01:48:08;;;;;;;22.40;21.10;;;15.80;94.40;;;;;;4997431;28;20499;-73
2021/08/30 01:50:38;;;;;;;22.17;20.87;;;15.80;94.30;;;;;;4995933;28;20462;-73
2021/08/30 01:53:07;;;;;;;22.87;21.43;;;15.90;93.50;;;;;;5000954;28;20568;-73
2021/08/30 01:55:41;;;;;;;22.27;20.97;;;15.80;93.40;;;;;;4997191;28;20547;-73
2021/08/30 02:01:05;;;;;;;21.67;20.10;;;15.70;93.90;;;;;;4941163;28;20471;-73
2021/08/30 02:03:32;;;;;;;21.10;19.90;;;15.70;94.20;;;;;;4981259;28;20462;-73
2021/08/30 02:06:02;;;;;;;21.77;20.57;;;15.70;94.10;;;;;;5007706;28;21001;-73
2021/08/30 02:08:34;;;;;;;21.50;20.20;;;15.70;94.30;;;;;;4994300;28;20496;-73
2021/08/30 02:11:06;;;;;;;21.80;20.60;;;15.70;94.20;;;;;;4997192;28;20471;-73
2021/08/30 02:13:34;;;;;;;21.63;20.43;;;15.80;93.60;;;;;;5001483;28;20969;-73
2021/08/30 02:16:02;;;;;;;21.67;20.20;;;15.70;93.60;;;;;;5004785;28;20457;-73
2021/08/30 02:18:36;;;;;;;21.07;19.87;;;15.70;93.90;;;;;;5001563;28;20909;-73
2021/08/30 02:21:10;;;;;;;21.60;20.27;;;15.70;94.00;;;;;;5003704;28;20469;-73
2021/08/30 02:23:44;;;;;;;21.47;20.17;;;15.80;93.90;;;;;;5005209;28;20465;-73
2021/08/30 02:26:13;;;;;;;21.50;20.20;;;15.70;93.70;;;;;;4999866;28;20457;-73
2021/08/30 02:28:42;;;;;;;21.30;19.90;;;15.70;93.60;;;;;;5001035;28;20481;-73
2021/08/30 02:31:10;;;;;;;20.80;19.60;;;15.70;93.70;;;;;;5007982;28;20457;-73
2021/08/30 02:33:39;;;;;;;21.83;20.53;;;15.70;93.70;;;;;;5001775;28;20458;-73
2021/08/30 02:36:08;;;;;;;23.00;21.60;;;15.80;93.80;;;;;;4997052;28;20550;-73
2021/08/30 02:38:37;;;;;;;21.90;20.60;;;15.70;93.70;;;;;;4997641;28;21015;-73
2021/08/30 02:41:07;;;;;;;21.60;20.30;;;15.70;94.10;;;;;;4996390;28;20496;-73
2021/08/30 02:43:35;;;;;;;22.10;20.80;;;15.70;94.50;;;;;;4992592;28;20469;-73
2021/08/30 02:46:02;;;;;;;21.50;20.30;;;15.70;94.70;;;;;;5001658;28;20468;-73
2021/08/30 02:48:30;;;;;;;21.73;20.43;;;15.70;94.90;;;;;;4995910;28;20484;-73
2021/08/30 02:50:58;;;;;;;22.33;21.00;;;15.70;94.90;;;;;;5008575;28;20564;-73
2021/08/30 02:53:28;;;;;;;21.60;20.33;;;15.60;95.20;;;;;;5005619;28;20463;-73
2021/08/30 02:55:55;;;;;;;21.37;20.23;;;15.70;95.40;;;;;;5003292;28;20465;-73
2021/08/30 02:58:23;;;;;;;20.30;19.10;;;15.60;95.60;;;;;;4998298;28;20507;-73
2021/08/30 03:00:50;;;;;;;22.37;21.13;;;15.60;95.60;;;;;;5004677;28;20467;-73
2021/08/30 03:03:17;;;;;;;20.03;18.93;;;15.70;95.60;;;;;;5004617;28;20460;-72
2021/08/30 03:05:46;;;;;;;20.70;19.60;;;15.60;95.60;;;;;;5002642;28;20500;-72
2021/08/30 03:08:14;;;;;;;19.63;18.53;;;15.60;95.70;;;;;;5006537;28;20495;-72
2021/08/30 03:10:45;;;;;;;20.50;19.40;;;15.60;95.70;;;;;;4992080;28;20463;-72
2021/08/30 03:13:13;;;;;;;20.33;19.23;;;15.60;95.80;;;;;;5006525;28;21149;-72
2021/08/30 03:15:44;;;;;;;17.67;16.77;;;15.50;95.70;;;;;;4998306;28;20462;-73
2021/08/30 03:18:14;;;;;;;20.00;18.90;;;15.50;95.80;;;;;;4998969;28;20477;-72
2021/08/30 03:20:42;;;;;;;19.23;18.23;;;15.50;96.00;;;;;;5003339;28;20486;-72
2021/08/30 03:23:10;;;;;;;19.27;18.27;;;15.50;96.40;;;;;;5004525;28;20469;-72
2021/08/30 03:25:38;;;;;;;18.30;17.40;;;15.50;96.10;;;;;;5000062;28;20555;-72
2021/08/30 03:28:09;;;;;;;19.30;18.30;;;15.50;95.90;;;;;;4998895;28;20485;-73
2021/08/30 03:30:37;;;;;;;19.83;18.80;;;15.40;96.20;;;;;;5000679;28;20459;-72
2021/08/30 03:33:05;;;;;;;17.40;16.53;;;15.40;96.00;;;;;;4995444;28;20536;-73
2021/08/30 03:35:33;;;;;;;18.10;17.20;;;15.40;96.00;;;;;;5009896;28;20550;-73
2021/08/30 03:38:02;;;;;;;18.83;17.83;;;15.40;95.50;;;;;;4994431;28;20911;-72
2021/08/30 03:40:30;;;;;;;18.17;17.27;;;15.40;95.50;;;;;;5002390;28;20457;-72
2021/08/30 03:42:57;;;;;;;19.60;18.60;;;15.30;95.70;;;;;;5012542;28;20460;-72
2021/08/30 03:45:28;;;;;;;19.80;18.73;;;15.20;96.30;;;;;;5004279;28;20466;-72
2021/08/30 03:47:56;;;;;;;19.27;18.17;;;15.30;96.50;;;;;;5001626;28;20473;-73
2021/08/30 03:50:23;;;;;;;19.83;18.63;;;15.30;96.20;;;;;;4997466;28;20472;-72
2021/08/30 03:52:51;;;;;;;20.10;19.00;;;15.40;96.20;;;;;;5009751;28;20559;-73
2021/08/30 03:55:18;;;;;;;20.03;18.90;;;15.40;96.20;;;;;;5006307;28;20467;-72
2021/08/30 03:57:46;;;;;;;20.30;19.20;;;15.50;96.00;;;;;;5006875;28;20473;-72
2021/08/30 04:00:13;;;;;;;20.27;19.17;;;15.50;96.00;;;;;;5008301;28;20471;-73
2021/08/30 04:02:42;;;;;;;21.07;19.77;;;15.50;96.10;;;;;;5000864;28;20465;-72
2021/08/30 04:05:11;;;;;;;20.50;19.30;;;15.50;95.70;;;;;;5005928;28;20461;-72
2021/08/30 04:07:38;;;;;;;21.80;20.50;;;15.50;95.80;;;;;;5003100;28;20565;-73
2021/08/30 04:10:06;;;;;;;22.57;21.23;;;15.50;95.90;;;;;;5001506;28;20559;-72
2021/08/30 04:12:37;;;;;;;21.63;20.23;;;15.40;96.20;;;;;;5009936;28;21174;-73
2021/08/30 04:15:05;;;;;;;21.93;20.63;;;15.40;96.40;;;;;;5001463;28;20484;-72
2021/08/30 04:17:32;;;;;;;22.13;20.80;;;15.40;96.40;;;;;;5000540;28;20453;-72
2021/08/30 04:20:00;;;;;;;21.60;20.30;;;15.40;96.50;;;;;;5008838;28;20495;-72
2021/08/30 04:22:27;;;;;;;22.40;20.80;;;15.40;96.90;;;;;;5001409;28;20459;-73
2021/08/30 04:24:54;;;;;;;23.10;21.67;;;15.40;96.90;;;;;;5002745;28;20549;-73
2021/08/30 04:27:21;;;;;;;21.00;19.77;;;15.40;96.70;;;;;;5004451;28;20472;-72
2021/08/30 04:29:47;;;;;;;23.63;22.10;;;15.40;96.50;;;;;;4991647;28;20477;-72
2021/08/30 04:32:14;;;;;;;22.30;20.90;;;15.50;96.20;;;;;;5007600;28;20547;-73
2021/08/30 04:34:42;;;;;;;23.53;22.10;;;15.50;96.20;;;;;;5007323;28;20457;-72
2021/08/30 04:37:10;;;;;;;28.63;22.70;;;15.50;96.10;;;;;;4998681;28;20467;-74
2021/08/30 04:39:37;;;;;;;24.03;22.53;;;15.40;96.30;;;;;;5000159;28;21037;-71
2021/08/30 04:42:05;;;;;;;24.20;22.50;;;15.40;96.30;;;;;;4998493;28;20465;-71
2021/08/30 04:44:32;;;;;;;24.23;22.67;;;15.50;96.30;;;;;;5006461;28;20461;-71
2021/08/30 04:47:01;;;;;;;25.57;23.87;;;15.40;96.40;;;;;;4997606;28;20464;-72
2021/08/30 04:49:28;;;;;;;23.97;22.37;;;15.40;96.80;;;;;;5000220;28;21002;-72
2021/08/30 04:51:55;;;;;;;24.30;22.60;;;15.50;96.70;;;;;;5005567;28;20533;-72
2021/08/30 04:54:23;;;;;;;25.40;23.60;;;15.50;96.50;;;;;;5001158;28;20537;-72
2021/08/30 04:56:50;;;;;;;23.97;22.27;;;15.40;96.80;;;;;;5007573;28;20911;-73
2021/08/30 04:59:19;;;;;;;25.37;23.70;;;15.30;96.70;;;;;;4997026;28;20481;-73
2021/08/30 05:01:45;;;;;;;25.17;23.27;;;15.40;97.10;;;;;;5004968;28;20532;-73
2021/08/30 05:04:12;;;;;;;24.10;22.50;;;15.40;97.00;;;;;;5002851;28;20479;-74
2021/08/30 05:06:39;;;;;;;24.90;23.40;;;15.50;96.80;;;;;;5011157;28;20548;-74
2021/08/30 05:09:06;;;;;;;24.80;23.10;;;15.50;96.90;;;;;;5004965;28;21113;-74
2021/08/30 05:11:37;;;;;;;21.80;20.40;;;15.50;97.10;;;;;;5008257;28;21114;-73
2021/08/30 05:14:04;;;;;;;24.13;22.60;;;15.40;97.30;;;;;;5004086;28;20460;-73
2021/08/30 05:16:31;;;;;;;22.37;20.97;;;15.40;97.60;;;;;;5007729;28;20464;-73
2021/08/30 05:18:58;;;;;;;21.90;20.50;;;15.40;97.40;;;;;;5003291;28;20585;-73
2021/08/30 05:21:25;;;;;;;21.90;20.50;;;15.50;97.20;;;;;;5007109;28;20457;-74
2021/08/30 05:23:51;;;;;;;24.27;22.67;;;15.50;97.00;;;;;;5007504;28;20540;-73
2021/08/30 05:26:18;;;;;;;23.67;22.07;;;15.50;97.20;;;;;;5004385;28;20457;-73
2021/08/30 05:28:47;;;;;;;24.40;22.80;;;15.50;97.00;;;;;;4999924;28;21024;-72
2021/08/30 05:31:14;;;;;;;24.17;22.67;;;15.50;97.10;;;;;;5004504;28;20491;-72
2021/08/30 05:33:41;;;;;;;27.30;25.37;;;15.50;97.20;;;;;;4999772;28;20513;-72
2021/08/30 05:36:08;;;;;;;26.13;24.43;;;15.50;97.30;;;;;;5007067;28;20537;-76
2021/08/30 05:38:35;;;;;;;24.03;22.23;;;15.40;97.60;;;;;;5010719;28;20480;-75
2021/08/30 05:41:02;;;;;;;25.93;24.20;;;15.50;97.50;;;;;;5011167;28;20543;-75
2021/08/30 05:43:30;;;;;;;28.23;26.33;;;15.50;97.10;;;;;;5006418;28;20983;-76
2021/08/30 05:45:58;;;;;;;24.83;23.23;;;15.40;96.90;;;;;;5002197;28;20469;-73
2021/08/30 05:48:25;;;;;;;25.13;23.47;;;15.50;97.40;;;;;;5002436;28;20480;-72
2021/08/30 05:50:52;;;;;;;25.87;23.97;;;15.50;97.20;;;;;;5002498;28;20458;-72
2021/08/30 05:53:20;;;;;;;25.43;23.83;;;15.70;96.70;;;;;;5001125;28;20587;-72
2021/08/30 05:55:47;;;;;;;25.10;23.50;;;15.60;96.30;;;;;;4999908;28;20469;-72
2021/08/30 05:58:14;;;;;;;23.53;21.93;;;15.50;97.10;;;;;;5002421;28;20488;-72
2021/08/30 06:00:40;;;;;;;26.07;24.27;;;15.50;97.30;;;;;;4994626;28;20508;-72
2021/08/30 06:03:09;;;;;;;25.63;23.93;;;15.60;96.80;;;;;;5000556;28;20459;-72
2021/08/30 06:05:36;;;;;;;25.07;23.47;;;15.70;96.80;;;;;;5007458;28;20467;-72
2021/08/30 06:08:03;;;;;;;22.83;21.33;;;15.60;96.10;;;;;;5000512;28;20477;-72
2021/08/30 06:10:30;;;;;;;26.40;24.50;;;15.60;96.30;;;;;;5000102;28;20465;-72
2021/08/30 06:12:56;;;;;;;24.77;23.17;;;15.50;96.80;;;;;;4993999;28;20561;-72
2021/08/30 06:15:23;;;;;;;24.53;22.83;;;15.50;96.80;;;;;;5004556;28;20469;-72
2021/08/30 06:17:50;;;;;;;25.23;23.63;;;15.50;97.20;;;;;;5002359;28;20642;-72
2021/08/30 06:20:19;;;;;;;25.10;23.20;;;15.60;96.70;;;;;;5006215;28;20460;-72
2021/08/30 06:22:45;;;;;;;25.13;23.33;;;15.60;96.50;;;;;;5007038;28;21025;-73
2021/08/30 06:25:12;;;;;;;23.50;22.00;;;15.60;97.00;;;;;;5002769;28;20551;-72
2021/08/30 06:27:39;;;;;;;25.83;23.93;;;15.70;96.40;;;;;;4995903;28;21089;-73
2021/08/30 06:30:07;;;;;;;24.43;22.83;;;15.90;95.80;;;;;;4991507;28;20871;-73
2021/08/30 06:32:34;;;;;;;23.77;22.17;;;16.00;95.60;;;;;;5002787;28;20536;-73
2021/08/30 06:35:01;;;;;;;24.13;22.63;;;16.20;94.80;;;;;;4997692;28;20460;-72
2021/08/30 06:37:29;;;;;;;23.10;21.50;;;16.20;94.10;;;;;;4999808;28;21125;-72
2021/08/30 06:39:56;;;;;;;23.20;21.50;;;16.40;94.20;;;;;;5000313;28;20462;-74
2021/08/30 06:42:23;;;;;;;23.87;22.30;;;16.60;93.30;;;;;;5006513;28;20468;-72
2021/08/30 06:44:50;;;;;;;24.80;23.20;;;16.70;92.10;;;;;;4991598;28;20457;-74
2021/08/30 06:47:17;;;;;;;25.40;23.80;;;16.60;91.90;;;;;;4991458;28;20560;-74
2021/08/30 06:49:44;;;;;;;24.23;22.53;;;16.50;92.60;;;;;;5000313;28;20480;-75
2021/08/30 06:52:11;;;;;;;23.27;21.73;;;16.40;92.90;;;;;;5002878;28;21026;-73
2021/08/30 06:54:39;;;;;;;23.07;21.67;;;16.50;92.30;;;;;;4993580;28;20475;-73
2021/08/30 06:57:09;;;;;;;26.00;24.30;;;16.50;92.90;;;;;;4992740;28;20462;-74
2021/08/30 06:59:36;;;;;;;24.97;22.90;;;16.40;92.40;;;;;;4992508;28;20855;-73
2021/08/30 07:02:03;;;;;;;24.20;22.60;;;16.30;92.40;;;;;;5008498;28;20967;-73
2021/08/30 07:04:30;;;;;;;25.73;23.73;;;16.20;93.30;;;;;;4995459;28;20466;-73
2021/08/30 07:06:57;;;;;;;24.20;22.30;;;16.40;93.40;;;;;;4998134;28;20464;-73
2021/08/30 07:09:24;;;;;;;25.40;23.60;;;16.60;92.50;;;;;;4999438;28;20484;-73
2021/08/30 07:11:52;;;;;;;23.70;22.20;;;16.50;91.90;;;;;;4992072;28;20462;-72
2021/08/30 07:14:20;;;;;;;24.70;22.83;;;16.30;92.70;;;;;;5005039;28;20801;-73
2021/08/30 07:16:46;;;;;;;24.77;23.03;;;16.40;93.00;;;;;;4994345;28;20474;-73
2021/08/30 07:19:13;;;;;;;24.47;22.83;;;16.50;92.50;;;;;;4995322;28;20490;-73
2021/08/30 07:21:40;;;;;;;24.40;22.60;;;16.60;91.80;;;;;;4992008;28;20465;-73
2021/08/30 07:24:07;;;;;;;24.57;23.07;;;16.80;91.70;;;;;;5003797;28;20976;-73
2021/08/30 07:26:34;;;;;;;24.27;22.77;;;16.90;91.00;;;;;;5000242;28;20991;-73
2021/08/30 07:29:03;;;;;;;25.20;23.53;;;17.00;90.50;;;;;;4995971;28;20503;-73
2021/08/30 07:31:30;;;;;;;24.37;22.87;;;16.90;90.80;;;;;;4999698;28;20475;-71
2021/08/30 07:33:57;;;;;;;23.70;22.20;;;16.70;90.70;;;;;;4997981;28;20455;-73
2021/08/30 07:36:24;;;;;;;23.47;21.97;;;16.60;91.90;;;;;;5003114;28;20542;-73
2021/08/30 07:38:51;;;;;;;23.60;22.10;;;16.70;91.60;;;;;;4994516;28;20477;-73
2021/08/30 07:41:17;;;;;;;25.50;23.50;;;16.80;91.30;;;;;;5006898;28;20472;-73
2021/08/30 07:43:44;;;;;;;24.90;23.30;;;16.90;91.60;;;;;;4991570;28;21086;-73
2021/08/30 07:46:13;;;;;;;23.40;21.93;;;17.00;90.80;;;;;;4997552;28;20469;-73
2021/08/30 07:48:40;;;;;;;23.87;22.27;;;17.00;90.80;;;;;;4991970;28;20492;-73
2021/08/30 07:51:06;;;;;;;23.63;22.03;;;16.80;90.70;;;;;;5005394;28;20479;-73
2021/08/30 07:53:33;;;;;;;25.50;24.00;;;16.70;91.50;;;;;;4995284;28;20462;-73
2021/08/30 07:56:00;;;;;;;23.17;21.77;;;16.70;91.60;;;;;;4996245;28;20450;-73
2021/08/30 07:58:27;;;;;;;24.40;22.70;;;16.60;92.10;;;;;;5002232;28;20487;-73
2021/08/30 08:00:54;;;;;;;24.70;23.20;;;16.60;92.70;;;;;;5001164;28;20471;-73
2021/08/30 08:03:22;;;;;;;24.30;22.80;;;16.40;92.50;;;;;;4995408;28;20556;-73
2021/08/30 08:05:49;;;;;;;22.87;21.47;;;16.40;93.20;;;;;;4998044;28;20453;-73
2021/08/30 08:08:16;;;;;;;22.80;21.40;;;16.30;93.80;;;;;;5003216;28;20477;-73
2021/08/30 08:10:43;;;;;;;22.30;20.80;;;16.40;93.70;;;;;;5006234;28;20456;-73
2021/08/30 08:13:10;;;;;;;22.63;21.17;;;16.60;92.80;;;;;;4996389;28;20474;-73
2021/08/30 08:15:38;;;;;;;22.73;21.23;;;16.70;92.50;;;;;;5006756;28;20460;-73
2021/08/30 08:18:05;;;;;;;23.37;21.80;;;16.70;92.50;;;;;;5009501;28;20476;-73
2021/08/30 08:20:35;;;;;;;21.77;20.37;;;16.60;92.90;;;;;;5006052;28;20556;-73
2021/08/30 08:23:06;;;;;;;24.07;22.47;;;16.50;93.70;;;;;;5000300;28;20898;-74
2021/08/30 08:25:33;;;;;;;22.03;20.73;;;16.50;93.60;;;;;;4995446;28;20449;-73
2021/08/30 08:28:04;;;;;;;21.83;20.43;;;16.40;94.10;;;;;;5007936;28;20481;-73
2021/08/30 08:30:31;;;;;;;22.40;20.97;;;16.50;94.10;;;;;;4998294;28;20535;-73
2021/08/30 08:33:00;;;;;;;21.80;20.40;;;16.60;93.80;;;;;;5004059;28;20474;-73
2021/08/30 08:35:27;;;;;;;22.00;20.63;;;16.70;93.20;;;;;;5004769;28;20475;-73
2021/08/30 08:37:55;;;;;;;21.63;20.23;;;16.60;93.20;;;;;;5010516;28;21078;-73
2021/08/30 08:40:22;;;;;;;21.27;19.87;;;16.60;93.20;;;;;;4997985;28;20463;-73
2021/08/30 08:42:49;;;;;;;22.03;20.50;;;16.50;93.30;;;;;;5003877;28;20470;-73
2021/08/30 08:45:17;;;;;;;22.53;21.07;;;16.80;93.40;;;;;;4997206;28;20461;-73
2021/08/30 08:47:45;;;;;;;21.90;20.70;;;16.90;92.60;;;;;;4999619;28;20918;-73
2021/08/30 08:50:15;;;;;;;22.70;21.30;;;17.10;91.90;;;;;;5000168;28;20494;-73
2021/08/30 08:52:43;;;;;;;22.60;21.10;;;17.10;91.30;;;;;;5010006;28;20944;-73
2021/08/30 08:55:14;;;;;;;20.50;19.30;;;17.00;92.10;;;;;;5005998;28;20474;-72
2021/08/30 08:57:41;;;;;;;21.57;20.27;;;17.10;92.30;;;;;;4994327;28;20936;-72
2021/08/30 09:00:10;;;;;;;22.43;21.00;;;17.00;91.70;;;;;;4998483;28;20455;-72
2021/08/30 09:02:38;;;;;;;23.60;22.20;;;17.10;92.10;;;;;;5005426;28;20560;-73
2021/08/30 09:05:07;;;;;;;22.00;20.60;;;17.20;92.00;;;;;;4991502;28;20839;-73
2021/08/30 09:07:38;;;;;;;22.43;21.13;;;17.30;91.60;;;;;;5000557;28;21320;-72
2021/08/30 09:10:08;;;;;;;21.13;19.77;;;17.30;91.20;;;;;;5002330;28;20483;-72
2021/08/30 09:12:36;;;;;;;21.90;20.43;;;17.50;91.10;;;;;;5002463;28;20493;-72
2021/08/30 09:15:14;;;;;;;21.87;20.57;;;17.60;89.80;;;;;;4999572;28;20544;-72
2021/08/30 09:17:49;;;;;;;24.17;22.77;;;17.50;90.30;;;;;;5002991;28;20458;-80
2021/08/30 09:20:17;;;;;;;22.63;21.23;;;17.50;90.10;;;;;;4995279;28;20456;-73
2021/08/30 09:22:44;;;;;;;23.50;22.00;;;17.60;90.00;;;;;;5004285;28;20547;-72
2021/08/30 09:25:13;;;;;;;24.50;22.80;;;17.70;89.40;;;;;;5002575;28;20554;-72
2021/08/30 09:27:44;;;;;;;24.47;22.87;;;17.70;89.30;;;;;;5003530;28;20477;-72
2021/08/30 09:30:13;;;;;;;24.07;22.40;;;17.70;88.40;;;;;;5004097;28;20491;-72
2021/08/30 09:32:41;;;;;;;25.47;23.70;;;17.60;89.00;;;;;;4999722;28;20493;-77
2021/08/30 09:35:10;;;;;;;25.70;24.10;;;17.80;88.60;;;;;;5001290;28;20495;-75
2021/08/30 09:37:39;;;;;;;25.30;23.60;;;17.80;88.30;;;;;;5006493;28;20543;-72
2021/08/30 09:40:08;;;;;;;24.53;23.00;;;17.90;88.20;;;;;;5001826;28;20465;-73
2021/08/30 09:42:36;;;;;;;26.73;24.83;;;18.00;88.50;;;;;;5002911;28;20461;-73
2021/08/30 09:45:13;;;;;;;26.50;24.80;;;18.00;87.50;;;;;;4992762;28;20995;-73
2021/08/30 09:47:50;;;;;;;26.57;24.73;;;17.80;88.10;;;;;;4997805;28;20475;-72
2021/08/30 09:50:18;;;;;;;28.30;26.50;;;17.80;88.50;;;;;;5001345;28;20505;-72
2021/08/30 09:52:45;;;;;;;26.57;24.70;;;17.60;89.10;;;;;;5007171;28;20955;-72
2021/08/30 09:55:12;;;;;;;26.43;24.50;;;17.50;89.80;;;;;;5002994;28;20555;-72
2021/08/30 09:57:46;;;;;;;25.93;24.03;;;17.30;91.10;;;;;;5005686;28;20580;-73
2021/08/30 10:00:15;;;;;;;25.80;24.07;;;17.10;91.20;;;;;;5003683;28;20457;-72
2021/08/30 10:02:47;;;;;;;26.83;25.03;;;17.10;91.70;;;;;;4999422;28;20454;-72
2021/08/30 10:05:15;;;;;;;25.70;24.00;;;17.10;91.80;;;;;;4997596;28;20519;-72
2021/08/30 10:07:43;;;;;;;26.40;24.60;;;17.10;91.90;;;;;;5007045;28;20998;-72
2021/08/30 10:10:11;;;;;;;26.53;24.43;;;17.00;92.70;;;;;;4991379;28;20472;-72
2021/08/30 10:12:39;;;;;;;27.70;25.80;;;16.90;93.50;;;;;;4995594;28;20559;-72
2021/08/30 10:15:08;;;;;;;28.37;25.90;;;16.90;93.60;;;;;;4996000;28;21011;-72
2021/08/30 10:17:43;;;;;;;27.03;25.20;;;16.90;93.80;;;;;;5009197;28;20544;-72
2021/08/30 10:20:15;;;;;;;27.03;25.13;;;17.00;93.50;;;;;;4995347;28;20455;-72
2021/08/30 10:22:43;;;;;;;27.47;25.43;;;17.20;93.20;;;;;;5001667;28;20540;-72
2021/08/30 10:25:16;;;;;;;28.03;26.10;;;17.50;92.60;;;;;;4996277;28;20871;-72
2021/08/30 10:27:55;;;;;;;27.97;26.00;;;17.70;91.00;;;;;;5008218;28;20514;-73
2021/08/30 10:30:23;;;;;;;26.50;24.60;;;17.70;90.80;;;;;;5000182;28;20472;-71
2021/08/30 10:32:55;;;;;;;29.17;27.07;;;17.50;89.90;;;;;;4997401;28;20472;-72
2021/08/30 10:35:25;;;;;;;27.80;25.60;;;17.20;91.90;;;;;;4999201;28;20457;-72
2021/08/30 10:37:56;;;;;;;27.10;24.90;;;17.10;92.60;;;;;;4998644;28;21169;-73
2021/08/30 10:40:25;;;;;;;25.77;23.97;;;17.00;93.40;;;;;;4995535;28;20573;-73
2021/08/30 10:43:05;;;;;;;28.07;26.00;;;17.10;93.10;;;;;;5006843;28;20504;-73
2021/08/30 10:45:34;;;;;;;28.90;26.43;;;17.10;92.10;;;;;;4999363;28;20467;-72
2021/08/30 10:48:05;;;;;;;27.37;25.17;;;17.20;92.30;;;;;;4990763;28;20580;-73
2021/08/30 10:50:37;;;;;;;26.43;24.43;;;17.50;91.50;;;;;;4993187;28;21054;-72
2021/08/30 10:53:06;;;;;;;26.77;24.83;;;17.70;90.30;;;;;;5000011;28;20491;-76
2021/08/30 10:55:38;;;;;;;27.20;25.23;;;17.80;90.20;;;;;;5004046;28;20467;-73
2021/08/30 10:58:19;;;;;;;30.60;27.40;;;17.90;89.80;;;;;;4992213;28;20473;-75
2021/08/30 11:00:49;;;;;;;29.30;26.93;;;18.10;89.40;;;;;;4995743;28;20457;-76
2021/08/30 11:03:32;;;;;;;31.97;29.43;;;18.20;89.20;;;;;;4996392;28;21050;-73
2021/08/30 11:06:03;;;;;;;31.87;29.57;;;18.20;89.50;;;;;;5006932;28;20850;-71
2021/08/30 11:08:30;;;;;;;25.27;23.77;;;18.00;90.40;;;;;;4997342;28;22423;-72
2021/08/30 11:11:12;;;;;;;24.57;23.03;;;17.80;89.90;;;;;;4998138;28;20479;-72
2021/08/30 11:13:40;;;;;;;24.00;22.40;;;17.60;90.50;;;;;;5000065;28;20898;-70
2021/08/30 11:16:21;;;;;;;28.47;26.67;;;17.70;90.80;;;;;;5006949;28;20459;-72
2021/08/30 11:18:58;;;;;;;33.93;31.53;;;17.80;90.60;;;;;;5003152;28;20475;-72
2021/08/30 11:21:33;;;;;;;26.00;24.27;;;18.00;90.20;;;;;;5001054;28;20795;-72
2021/08/30 11:24:01;;;;;;;30.10;27.90;;;18.40;88.10;;;;;;5001082;28;20458;-73
2021/08/30 11:26:28;;;;;;;32.13;30.00;;;18.60;87.30;;;;;;5003379;28;20540;-72
2021/08/30 11:28:56;;;;;;;30.50;28.40;;;18.90;86.00;;;;;;5003326;28;20485;-72
2021/08/30 11:31:24;;;;;;;40.23;37.30;;;19.00;85.20;;;;;;4990239;28;20473;-72
2021/08/30 11:33:51;;;;;;;29.27;27.47;;;19.00;85.90;;;;;;4995618;28;20557;-74
2021/08/30 11:36:19;;;;;;;27.50;25.63;;;19.00;84.80;;;;;;5006379;28;20464;-72
2021/08/30 11:38:55;;;;;;;28.33;26.53;;;19.00;86.40;;;;;;4990855;28;20482;-72
2021/08/30 11:41:22;;;;;;;27.50;25.73;;;19.00;85.90;;;;;;4997225;28;20461;-72
2021/08/30 11:43:50;;;;;;;28.23;26.33;;;18.80;85.60;;;;;;5000259;28;20551;-71
2021/08/30 11:46:17;;;;;;;30.33;28.47;;;19.00;85.80;;;;;;5005502;28;20479;-72
2021/08/30 11:48:55;;;;;;;28.67;26.77;;;19.00;85.30;;;;;;5002656;28;20481;-72
2021/08/30 11:51:25;;;;;;;29.03;27.13;;;18.90;85.70;;;;;;5002541;28;20538;-71
2021/08/30 11:53:52;;;;;;;29.73;27.73;;;19.00;84.80;;;;;;4994741;28;20465;-72
2021/08/30 11:56:19;;;;;;;29.43;27.30;;;18.90;85.30;;;;;;5001787;28;20836;-73
2021/08/30 11:58:46;;;;;;;31.60;29.63;;;19.00;84.70;;;;;;5008821;28;20486;-74
2021/08/30 12:01:19;;;;;;;29.00;27.13;;;18.90;84.70;;;;;;5008198;28;20458;-73
2021/08/30 12:03:46;;;;;;;30.23;28.13;;;19.00;84.80;;;;;;5001489;28;20830;-74
2021/08/30 12:06:17;;;;;;;30.90;28.83;;;19.00;85.30;;;;;;5003887;28;20963;-76
2021/08/30 12:08:56;;;;;;;30.13;28.13;;;19.00;84.90;;;;;;5007530;28;21175;-74
2021/08/30 12:11:23;;;;;;;30.70;28.27;;;18.90;84.60;;;;;;5003560;28;20487;-74
2021/08/30 12:13:59;;;;;;;31.40;29.27;;;18.70;86.20;;;;;;4994311;28;20466;-74
2021/08/30 12:16:27;;;;;;;28.67;26.77;;;18.60;86.00;;;;;;4992234;28;20488;-74
2021/08/30 12:18:56;;;;;;;29.20;27.17;;;18.70;86.20;;;;;;5002903;28;20481;-73
2021/08/30 12:21:31;;;;;;;27.93;26.10;;;18.50;86.50;;;;;;5003979;28;20543;-71
2021/08/30 12:23:59;;;;;;;28.77;26.87;;;18.60;86.80;;;;;;4998137;28;20567;-72
2021/08/30 12:26:26;;;;;;;29.10;27.30;;;18.60;85.70;;;;;;5005581;28;20808;-70
2021/08/30 12:28:55;;;;;;;27.87;26.03;;;18.60;85.50;;;;;;5004316;28;20878;-72
2021/08/30 12:31:42;;;;;;;28.50;26.70;;;18.50;85.90;;;;;;5004113;28;20477;-70
2021/08/30 12:34:12;;;;;;;28.10;26.10;;;18.40;86.30;;;;;;5002735;28;20492;-70
2021/08/30 12:36:39;;;;;;;27.63;25.83;;;18.30;86.90;;;;;;4997588;28;20582;-70
2021/08/30 12:39:07;;;;;;;30.43;28.40;;;18.30;87.10;;;;;;5001245;28;21529;-71